Time;durP1;ratioP1;P1;durP2;ratioP2;P2;SDS_P1;SDS_P2;PMS_P1;PMS_P2;Temp;Humidity;BMP_temperature;BMP_pressure;BME280_temperature;BME280_humidity;BME280_pressure;Samples;Min_cycle;Max_cycle;Signal;HPM_P1;HPM_P2
2020/12/28 00:00:37;;;;;;;;;;;;;;;;;;6335352;22;19887;-91
2020/12/28 00:03:02;;;;;;;;;;;;;;;;;;6335917;22;19911;-89
2020/12/28 00:05:28;;;;;;;;;;;;;;;;;;6336067;22;19906;-91
2020/12/28 00:07:54;;;;;;;;;;;;;;;;;;6327859;22;19907;-90
2020/12/28 00:10:20;;;;;;;;;;;;;;;;;;6314219;22;19902;-90
2020/12/28 00:12:46;;;;;;;;;;;;;;;;;;6317500;22;19899;-91
2020/12/28 00:15:12;;;;;;;;;;;;;;;;;;6316009;22;19997;-90
2020/12/28 00:17:38;;;;;;;;;;;;;;;;;;6312934;22;19903;-90
2020/12/28 00:20:04;;;;;;;;;;;;;;;;;;6312035;22;19906;-88
2020/12/28 00:22:30;;;;;;;;;;;;;;;;;;6310908;22;19899;-90
2020/12/28 00:24:56;;;;;;;;;;;;;;;;;;6310076;22;20521;-89
2020/12/28 00:27:22;;;;;;;;;;;;;;;;;;6310002;22;20467;-89
2020/12/28 00:29:48;;;;;;;;;;;;;;;;;;6310556;22;19949;-89
2020/12/28 00:32:13;;;;;;;;;;;;;;;;;;6309903;22;20231;-90
2020/12/28 00:34:39;;;;;;;;;;;;;;;;;;6308136;22;19902;-90
2020/12/28 00:37:06;;;;;;;;;;;;;;;;;;6310377;22;19910;-88
2020/12/28 00:39:32;;;;;;;;;;;;;;;;;;6321199;22;19912;-89
2020/12/28 00:41:58;;;;;;;;;;;;;;;;;;6313614;22;19910;-90
2020/12/28 00:44:24;;;;;;;;;;;;;;;;;;6309992;22;19899;-91
2020/12/28 00:46:49;;;;;;;;;;;;;;;;;;6309431;22;19906;-90
2020/12/28 00:49:15;;;;;;;;;;;;;;;;;;6308371;22;20315;-91
2020/12/28 00:51:41;;;;;;;;;;;;;;;;;;6308751;22;19941;-91
2020/12/28 00:54:07;;;;;;;;;;;;;;;;;;6307336;22;20443;-90
2020/12/28 00:56:33;;;;;;;;;;;;;;;;;;6309997;22;20392;-92
2020/12/28 00:58:59;;;;;;;;;;;;;;;;;;6309861;22;19899;-91
2020/12/28 01:01:25;;;;;;;;;;;;;;;;;;6310648;22;19903;-89
2020/12/28 01:03:51;;;;;;;;;;;;;;;;;;6308706;22;19910;-91
2020/12/28 01:06:17;;;;;;;;;;;;;;;;;;6310109;22;19906;-90
2020/12/28 01:08:42;;;;;;;;;;;;;;;;;;6308590;22;19903;-90
2020/12/28 01:11:10;;;;;;;;;;;;;;;;;;6309735;22;19910;-91
2020/12/28 01:13:36;;;;;;;;;;;;;;;;;;6309861;22;19903;-89
2020/12/28 01:16:02;;;;;;;;;;;;;;;;;;6309881;22;19898;-90
2020/12/28 01:18:28;;;;;;;;;;;;;;;;;;6308698;22;19903;-91
2020/12/28 01:20:53;;;;;;;;;;;;;;;;;;6310970;22;19898;-92
2020/12/28 01:23:19;;;;;;;;;;;;;;;;;;6310256;22;19905;-90
2020/12/28 01:25:45;;;;;;;;;;;;;;;;;;6310325;22;20271;-89
2020/12/28 01:28:11;;;;;;;;;;;;;;;;;;6311834;22;19899;-91
2020/12/28 01:30:37;;;;;;;;;;;;;;;;;;6309748;22;19906;-91
2020/12/28 01:33:04;;;;;;;;;;;;;;;;;;6311105;22;19926;-90
2020/12/28 01:35:30;;;;;;;;;;;;;;;;;;6311642;22;20239;-89
2020/12/28 01:37:56;;;;;;;;;;;;;;;;;;6309517;22;19906;-92
2020/12/28 01:40:22;;;;;;;;;;;;;;;;;;6310105;22;19956;-91
2020/12/28 01:42:47;;;;;;;;;;;;;;;;;;6311769;22;19910;-92
2020/12/28 01:45:13;;;;;;;;;;;;;;;;;;6310173;22;20385;-90
2020/12/28 01:47:39;;;;;;;;;;;;;;;;;;6309962;22;19907;-91
2020/12/28 01:50:05;;;;;;;;;;;;;;;;;;6310932;22;19906;-91
2020/12/28 01:52:31;;;;;;;;;;;;;;;;;;6311112;22;19906;-90
2020/12/28 01:54:57;;;;;;;;;;;;;;;;;;6310217;22;19902;-89
2020/12/28 01:57:23;;;;;;;;;;;;;;;;;;6309745;22;19936;-90
2020/12/28 01:59:49;;;;;;;;;;;;;;;;;;6307391;22;19906;-89
2020/12/28 02:02:15;;;;;;;;;;;;;;;;;;6307429;22;20665;-89
2020/12/28 02:04:41;;;;;;;;;;;;;;;;;;6308401;22;19899;-88
2020/12/28 02:07:07;;;;;;;;;;;;;;;;;;6308498;22;19905;-89
2020/12/28 02:09:33;;;;;;;;;;;;;;;;;;6309698;22;19902;-90
2020/12/28 02:11:59;;;;;;;;;;;;;;;;;;6309578;22;19906;-88
2020/12/28 02:14:25;;;;;;;;;;;;;;;;;;6307593;22;20299;-88
2020/12/28 02:16:51;;;;;;;;;;;;;;;;;;6307814;22;19902;-89
2020/12/28 02:19:17;;;;;;;;;;;;;;;;;;6310158;22;19899;-90
2020/12/28 02:21:43;;;;;;;;;;;;;;;;;;6309863;22;19903;-89
2020/12/28 02:24:09;;;;;;;;;;;;;;;;;;6311015;22;19899;-90
2020/12/28 02:26:34;;;;;;;;;;;;;;;;;;6311036;22;19911;-89
2020/12/28 02:29:00;;;;;;;;;;;;;;;;;;6311484;22;19906;-89
2020/12/28 02:31:26;;;;;;;;;;;;;;;;;;6310864;22;19903;-89
2020/12/28 02:33:52;;;;;;;;;;;;;;;;;;6311031;22;19899;-89
2020/12/28 02:36:18;;;;;;;;;;;;;;;;;;6310707;22;19899;-90
2020/12/28 02:38:44;;;;;;;;;;;;;;;;;;6311388;22;19941;-90
2020/12/28 02:41:10;;;;;;;;;;;;;;;;;;6311204;22;19956;-90
2020/12/28 02:43:36;;;;;;;;;;;;;;;;;;6310478;22;19903;-90
2020/12/28 02:46:02;;;;;;;;;;;;;;;;;;6311667;22;19914;-91
2020/12/28 02:48:27;;;;;;;;;;;;;;;;;;6311438;22;19923;-89
2020/12/28 02:50:53;;;;;;;;;;;;;;;;;;6312586;22;20239;-90
2020/12/28 02:53:19;;;;;;;;;;;;;;;;;;6311897;22;19906;-91
2020/12/28 02:55:45;;;;;;;;;;;;;;;;;;6310924;22;19903;-89
2020/12/28 02:58:11;;;;;;;;;;;;;;;;;;6312336;22;20374;-90
2020/12/28 03:00:37;;;;;;;;;;;;;;;;;;6312372;22;19906;-92
2020/12/28 03:03:03;;;;;;;;;;;;;;;;;;6312372;22;20316;-91
2020/12/28 03:05:29;;;;;;;;;;;;;;;;;;6311901;22;19907;-90
2020/12/28 03:07:55;;;;;;;;;;;;;;;;;;6311460;22;19899;-92
2020/12/28 03:10:21;;;;;;;;;;;;;;;;;;6309923;22;20274;-91
2020/12/28 03:12:47;;;;;;;;;;;;;;;;;;6311745;22;20239;-91
2020/12/28 03:15:12;;;;;;;;;;;;;;;;;;6311647;22;19956;-91
2020/12/28 03:17:38;;;;;;;;;;;;;;;;;;6311362;22;19910;-91
2020/12/28 03:20:04;;;;;;;;;;;;;;;;;;6310765;22;19968;-93
2020/12/28 03:22:30;;;;;;;;;;;;;;;;;;6310176;22;19926;-90
2020/12/28 03:24:56;;;;;;;;;;;;;;;;;;6310893;22;19942;-92
2020/12/28 03:27:22;;;;;;;;;;;;;;;;;;6311456;22;19899;-92
2020/12/28 03:29:48;;;;;;;;;;;;;;;;;;6310232;22;19899;-92
2020/12/28 03:32:14;;;;;;;;;;;;;;;;;;6310187;22;19906;-92
2020/12/28 03:34:40;;;;;;;;;;;;;;;;;;6311969;22;19905;-93
2020/12/28 03:37:06;;;;;;;;;;;;;;;;;;6312970;22;19956;-92
2020/12/28 03:39:32;;;;;;;;;;;;;;;;;;6311705;22;19899;-92
2020/12/28 03:41:57;;;;;;;;;;;;;;;;;;6311610;22;19911;-91
2020/12/28 03:44:23;;;;;;;;;;;;;;;;;;6309787;22;19907;-93
2020/12/28 03:46:49;;;;;;;;;;;;;;;;;;6311394;22;20401;-91
2020/12/28 03:49:15;;;;;;;;;;;;;;;;;;6311112;22;19899;-91
2020/12/28 03:51:41;;;;;;;;;;;;;;;;;;6311032;22;19899;-91
2020/12/28 03:54:07;;;;;;;;;;;;;;;;;;6311699;22;19906;-91
2020/12/28 03:56:33;;;;;;;;;;;;;;;;;;6310907;22;19929;-92
2020/12/28 03:58:59;;;;;;;;;;;;;;;;;;6311309;22;19905;-91
2020/12/28 04:01:25;;;;;;;;;;;;;;;;;;6311286;22;20269;-91
2020/12/28 04:03:53;;;;;;;;;;;;;;;;;;6310856;22;19902;-91
2020/12/28 04:06:19;;;;;;;;;;;;;;;;;;6309511;22;19907;-92
2020/12/28 04:08:45;;;;;;;;;;;;;;;;;;6311099;22;19978;-92
2020/12/28 04:11:11;;;;;;;;;;;;;;;;;;6309745;22;19905;-91
2020/12/28 04:13:37;;;;;;;;;;;;;;;;;;6311733;22;19956;-89
2020/12/28 04:16:02;;;;;;;;;;;;;;;;;;6312157;22;19906;-90
2020/12/28 04:18:28;;;;;;;;;;;;;;;;;;6311958;22;19899;-91
2020/12/28 04:20:54;;;;;;;;;;;;;;;;;;6312014;22;19899;-91
2020/12/28 04:23:20;;;;;;;;;;;;;;;;;;6309671;22;19903;-90
2020/12/28 04:25:46;;;;;;;;;;;;;;;;;;6305366;22;19907;-90
2020/12/28 04:28:12;;;;;;;;;;;;;;;;;;6308411;22;20312;-89
2020/12/28 04:30:38;;;;;;;;;;;;;;;;;;6309415;22;19906;-89
2020/12/28 04:33:04;;;;;;;;;;;;;;;;;;6309136;22;19899;-89
2020/12/28 04:35:30;;;;;;;;;;;;;;;;;;6308186;22;19943;-88
2020/12/28 04:37:56;;;;;;;;;;;;;;;;;;6308794;22;19899;-88
2020/12/28 04:40:22;;;;;;;;;;;;;;;;;;6309656;22;19925;-88
2020/12/28 04:42:48;;;;;;;;;;;;;;;;;;6310973;22;20320;-89
2020/12/28 04:45:13;;;;;;;;;;;;;;;;;;6315606;22;19917;-91
2020/12/28 04:47:39;;;;;;;;;;;;;;;;;;6315956;22;19898;-89
2020/12/28 04:50:05;;;;;;;;;;;;;;;;;;6316863;22;19903;-90
2020/12/28 04:52:31;;;;;;;;;;;;;;;;;;6316071;22;20573;-91
2020/12/28 04:54:57;;;;;;;;;;;;;;;;;;6317364;22;19905;-90
2020/12/28 04:57:23;;;;;;;;;;;;;;;;;;6335340;22;19899;-89
2020/12/28 04:59:49;;;;;;;;;;;;;;;;;;6335660;22;19936;-90
2020/12/28 05:02:15;;;;;;;;;;;;;;;;;;6334652;22;19894;-91
2020/12/28 05:04:40;;;;;;;;;;;;;;;;;;6335238;22;19894;-91
2020/12/28 05:07:06;;;;;;;;;;;;;;;;;;6330733;22;19918;-91
2020/12/28 05:09:32;;;;;;;;;;;;;;;;;;6334753;22;19907;-88
2020/12/28 05:11:58;;;;;;;;;;;;;;;;;;6335652;22;19887;-90
2020/12/28 05:14:24;;;;;;;;;;;;;;;;;;6335776;22;19898;-89
2020/12/28 05:16:50;;;;;;;;;;;;;;;;;;6335469;22;19887;-91
2020/12/28 05:19:16;;;;;;;;;;;;;;;;;;6334458;22;19891;-91
2020/12/28 05:21:43;;;;;;;;;;;;;;;;;;6335202;22;19934;-91
2020/12/28 05:24:08;;;;;;;;;;;;;;;;;;6335316;22;19939;-91
2020/12/28 05:26:34;;;;;;;;;;;;;;;;;;6335034;22;19895;-91
2020/12/28 05:29:00;;;;;;;;;;;;;;;;;;6334027;22;19917;-91
2020/12/28 05:31:26;;;;;;;;;;;;;;;;;;6313607;22;19910;-90
2020/12/28 05:33:52;;;;;;;;;;;;;;;;;;6312094;22;19899;-92
2020/12/28 05:36:18;;;;;;;;;;;;;;;;;;6310935;22;19906;-92
2020/12/28 05:38:44;;;;;;;;;;;;;;;;;;6310571;22;19952;-92
2020/12/28 05:41:10;;;;;;;;;;;;;;;;;;6308269;22;20212;-91
2020/12/28 05:43:36;;;;;;;;;;;;;;;;;;6308705;22;19899;-93
2020/12/28 05:46:02;;;;;;;;;;;;;;;;;;6310563;22;20002;-91
2020/12/28 05:48:28;;;;;;;;;;;;;;;;;;6310025;22;19952;-89
2020/12/28 05:50:53;;;;;;;;;;;;;;;;;;6311004;22;19902;-91
2020/12/28 05:53:19;;;;;;;;;;;;;;;;;;6310497;22;19969;-90
2020/12/28 05:55:45;;;;;;;;;;;;;;;;;;6311059;22;19924;-91
2020/12/28 05:58:11;;;;;;;;;;;;;;;;;;6310344;22;19899;-90
2020/12/28 06:00:37;;;;;;;;;;;;;;;;;;6310020;22;19977;-90
2020/12/28 06:03:03;;;;;;;;;;;;;;;;;;6309762;22;19946;-90
2020/12/28 06:05:29;;;;;;;;;;;;;;;;;;6310170;22;19952;-91
2020/12/28 06:07:55;;;;;;;;;;;;;;;;;;6309844;22;20319;-91
2020/12/28 06:10:21;;;;;;;;;;;;;;;;;;6309231;22;19903;-90
2020/12/28 06:12:47;;;;;;;;;;;;;;;;;;6309442;22;20216;-92
2020/12/28 06:15:13;;;;;;;;;;;;;;;;;;6307783;22;19910;-91
2020/12/28 06:17:39;;;;;;;;;;;;;;;;;;6309513;22;19903;-91
2020/12/28 06:20:05;;;;;;;;;;;;;;;;;;6309704;22;19899;-90
2020/12/28 06:22:32;;;;;;;;;;;;;;;;;;6309884;22;19921;-91
2020/12/28 06:24:58;;;;;;;;;;;;;;;;;;6309817;22;19942;-90
2020/12/28 06:27:23;;;;;;;;;;;;;;;;;;6309419;22;20287;-92
2020/12/28 06:29:49;;;;;;;;;;;;;;;;;;6309301;22;19903;-91
2020/12/28 06:32:16;;;;;;;;;;;;;;;;;;6308603;22;19898;-89
2020/12/28 06:34:42;;;;;;;;;;;;;;;;;;6309776;22;20236;-90
2020/12/28 06:37:07;;;;;;;;;;;;;;;;;;6310182;22;19898;-91
2020/12/28 06:39:33;;;;;;;;;;;;;;;;;;6311188;22;19930;-90
2020/12/28 06:41:59;;;;;;;;;;;;;;;;;;6308738;22;19911;-91
2020/12/28 06:44:26;;;;;;;;;;;;;;;;;;6309534;22;20499;-91
2020/12/28 06:46:51;;;;;;;;;;;;;;;;;;6309936;22;19978;-91
2020/12/28 06:49:17;;;;;;;;;;;;;;;;;;6309463;22;19902;-92
2020/12/28 06:51:43;;;;;;;;;;;;;;;;;;6309917;22;19961;-92
2020/12/28 06:54:09;;;;;;;;;;;;;;;;;;6310446;22;19903;-91
2020/12/28 06:56:35;;;;;;;;;;;;;;;;;;6312433;22;19899;-93
2020/12/28 06:59:01;;;;;;;;;;;;;;;;;;6313852;22;20205;-91
2020/12/28 07:01:27;;;;;;;;;;;;;;;;;;6313661;22;19905;-91
2020/12/28 07:03:53;;;;;;;;;;;;;;;;;;6313544;22;19903;-93
2020/12/28 07:06:19;;;;;;;;;;;;;;;;;;6313171;22;19914;-91
2020/12/28 07:08:45;;;;;;;;;;;;;;;;;;6313240;22;19902;-92
2020/12/28 07:11:11;;;;;;;;;;;;;;;;;;6313593;22;19952;-91
2020/12/28 07:13:37;;;;;;;;;;;;;;;;;;6314666;22;19899;-92
2020/12/28 07:16:03;;;;;;;;;;;;;;;;;;6313308;22;19899;-92
2020/12/28 07:18:28;;;;;;;;;;;;;;;;;;6313436;22;19906;-94
2020/12/28 07:20:54;;;;;;;;;;;;;;;;;;6315098;22;19899;-92
2020/12/28 07:23:20;;;;;;;;;;;;;;;;;;6314009;22;19929;-91
2020/12/28 07:25:46;;;;;;;;;;;;;;;;;;6313873;22;19960;-93
2020/12/28 07:28:12;;;;;;;;;;;;;;;;;;6314916;22;20316;-92
2020/12/28 07:30:38;;;;;;;;;;;;;;;;;;6314157;22;19969;-92
2020/12/28 07:33:04;;;;;;;;;;;;;;;;;;6313895;22;19983;-92
2020/12/28 07:35:30;;;;;;;;;;;;;;;;;;6313899;22;19899;-93
2020/12/28 07:37:56;;;;;;;;;;;;;;;;;;6313378;22;19906;-93
2020/12/28 07:40:22;;;;;;;;;;;;;;;;;;6313113;22;19899;-93
2020/12/28 07:42:47;;;;;;;;;;;;;;;;;;6312806;22;19911;-92
2020/12/28 07:45:13;;;;;;;;;;;;;;;;;;6311562;22;20326;-93
2020/12/28 07:47:40;;;;;;;;;;;;;;;;;;6311803;22;19899;-92
2020/12/28 07:50:06;;;;;;;;;;;;;;;;;;6313080;22;19898;-93
2020/12/28 07:52:32;;;;;;;;;;;;;;;;;;6315250;22;20350;-91
2020/12/28 07:54:58;;;;;;;;;;;;;;;;;;6313626;22;20218;-92
2020/12/28 07:57:23;;;;;;;;;;;;;;;;;;6314490;22;19952;-92
2020/12/28 07:59:49;;;;;;;;;;;;;;;;;;6314926;22;19903;-94
2020/12/28 08:02:15;;;;;;;;;;;;;;;;;;6314558;22;19899;-93
2020/12/28 08:04:41;;;;;;;;;;;;;;;;;;6315980;22;19899;-92
2020/12/28 08:07:07;;;;;;;;;;;;;;;;;;6313713;22;19946;-92
2020/12/28 08:09:33;;;;;;;;;;;;;;;;;;6313411;22;19898;-92
2020/12/28 08:11:59;;;;;;;;;;;;;;;;;;6314268;22;19945;-92
2020/12/28 08:14:25;;;;;;;;;;;;;;;;;;6312325;22;20005;-93
2020/12/28 08:16:51;;;;;;;;;;;;;;;;;;6313240;22;19899;-92
2020/12/28 08:19:17;;;;;;;;;;;;;;;;;;6312615;22;19899;-92
2020/12/28 08:21:43;;;;;;;;;;;;;;;;;;6312655;22;19918;-91
2020/12/28 08:24:09;;;;;;;;;;;;;;;;;;6311254;22;19926;-92
2020/12/28 08:26:35;;;;;;;;;;;;;;;;;;6311545;22;20241;-93
2020/12/28 08:29:01;;;;;;;;;;;;;;;;;;6311022;22;19903;-91
2020/12/28 08:31:27;;;;;;;;;;;;;;;;;;6310880;22;19899;-92
2020/12/28 08:33:53;;;;;;;;;;;;;;;;;;6311417;22;19922;-94
2020/12/28 08:36:19;;;;;;;;;;;;;;;;;;6312278;22;20230;-92
2020/12/28 08:38:44;;;;;;;;;;;;;;;;;;6314299;22;19905;-92
2020/12/28 08:41:10;;;;;;;;;;;;;;;;;;6312418;22;19910;-92
2020/12/28 08:43:36;;;;;;;;;;;;;;;;;;6313278;22;19903;-92
2020/12/28 08:46:02;;;;;;;;;;;;;;;;;;6313214;22;19907;-92
2020/12/28 08:48:28;;;;;;;;;;;;;;;;;;6312848;22;19952;-92
2020/12/28 08:50:54;;;;;;;;;;;;;;;;;;6312085;22;19902;-93
2020/12/28 08:53:20;;;;;;;;;;;;;;;;;;6314397;22;19899;-92
2020/12/28 08:55:46;;;;;;;;;;;;;;;;;;6313144;22;19899;-93
2020/12/28 08:58:12;;;;;;;;;;;;;;;;;;6314441;22;20239;-91
2020/12/28 09:00:37;;;;;;;;;;;;;;;;;;6314930;22;19965;-93
2020/12/28 09:03:03;;;;;;;;;;;;;;;;;;6314377;22;19934;-92
2020/12/28 09:05:29;;;;;;;;;;;;;;;;;;6318845;22;19907;-92
2020/12/28 09:07:55;;;;;;;;;;;;;;;;;;6321259;22;19921;-92
2020/12/28 09:10:23;;;;;;;;;;;;;;;;;;6319543;22;19903;-93
2020/12/28 09:12:49;;;;;;;;;;;;;;;;;;6319099;22;19905;-92
2020/12/28 09:15:15;;;;;;;;;;;;;;;;;;6320966;22;19899;-92
2020/12/28 09:17:41;;;;;;;;;;;;;;;;;;6321295;22;19899;-93
2020/12/28 09:20:07;;;;;;;;;;;;;;;;;;6321264;22;19998;-92
2020/12/28 09:22:33;;;;;;;;;;;;;;;;;;6324448;22;19942;-93
2020/12/28 09:24:59;;;;;;;;;;;;;;;;;;6326091;22;19899;-93
2020/12/28 09:27:25;;;;;;;;;;;;;;;;;;6324619;22;19906;-92
2020/12/28 09:29:51;;;;;;;;;;;;;;;;;;6332747;22;19938;-92
2020/12/28 09:32:17;;;;;;;;;;;;;;;;;;6334809;22;19935;-92
2020/12/28 09:34:43;;;;;;;;;;;;;;;;;;6335008;22;19891;-87
2020/12/28 09:37:09;;;;;;;;;;;;;;;;;;6334930;22;19933;-93
2020/12/28 09:39:35;;;;;;;;;;;;;;;;;;6335213;22;19887;-90
2020/12/28 09:42:01;;;;;;;;;;;;;;;;;;6334734;22;19898;-93
2020/12/28 09:44:26;;;;;;;;;;;;;;;;;;6336126;22;19939;-92
2020/12/28 09:46:52;;;;;;;;;;;;;;;;;;6335542;22;19900;-87
2020/12/28 09:49:18;;;;;;;;;;;;;;;;;;6335666;22;19925;-87
2020/12/28 09:51:44;;;;;;;;;;;;;;;;;;6330547;22;20353;-92
2020/12/28 09:54:10;;;;;;;;;;;;;;;;;;6317106;22;19898;-91
2020/12/28 09:56:36;;;;;;;;;;;;;;;;;;6317235;22;19945;-93
2020/12/28 09:59:02;;;;;;;;;;;;;;;;;;6317389;22;19906;-93
2020/12/28 10:01:28;;;;;;;;;;;;;;;;;;6313817;22;19903;-92
2020/12/28 10:03:54;;;;;;;;;;;;;;;;;;6310924;22;20312;-93
2020/12/28 10:06:32;;;;;;;;;;;;;;;;;;6309951;22;19946;-93
2020/12/28 10:08:58;;;;;;;;;;;;;;;;;;6311273;22;19968;-92
2020/12/28 10:11:24;;;;;;;;;;;;;;;;;;6308779;22;19906;-94
2020/12/28 10:13:50;;;;;;;;;;;;;;;;;;6309730;22;19906;-91
2020/12/28 10:16:16;;;;;;;;;;;;;;;;;;6309905;22;19899;-92
2020/12/28 10:18:42;;;;;;;;;;;;;;;;;;6311940;22;19899;-91
2020/12/28 10:21:08;;;;;;;;;;;;;;;;;;6310377;22;19914;-88
2020/12/28 10:23:34;;;;;;;;;;;;;;;;;;6310717;22;19906;-88
2020/12/28 10:26:00;;;;;;;;;;;;;;;;;;6311393;22;19987;-94
2020/12/28 10:28:26;;;;;;;;;;;;;;;;;;6309570;22;19906;-88
2020/12/28 10:30:52;;;;;;;;;;;;;;;;;;6310641;22;19907;-89
2020/12/28 10:33:18;;;;;;;;;;;;;;;;;;6311058;22;19899;-88
2020/12/28 10:35:43;;;;;;;;;;;;;;;;;;6310674;22;19910;-90
2020/12/28 10:38:09;;;;;;;;;;;;;;;;;;6311222;22;19898;-91
2020/12/28 10:40:36;;;;;;;;;;;;;;;;;;6307067;22;19922;-87
2020/12/28 10:43:02;;;;;;;;;;;;;;;;;;6305758;22;20256;-89
2020/12/28 10:45:27;;;;;;;;;;;;;;;;;;6310698;22;19906;-90
2020/12/28 10:47:53;;;;;;;;;;;;;;;;;;6309942;22;19964;-91
2020/12/28 10:50:19;;;;;;;;;;;;;;;;;;6310153;22;20156;-91
2020/12/28 10:52:45;;;;;;;;;;;;;;;;;;6310313;22;19903;-91
2020/12/28 10:55:11;;;;;;;;;;;;;;;;;;6311048;22;19906;-91
2020/12/28 10:57:37;;;;;;;;;;;;;;;;;;6310993;22;20312;-94
2020/12/28 11:00:03;;;;;;;;;;;;;;;;;;6310189;22;19903;-93
2020/12/28 11:02:29;;;;;;;;;;;;;;;;;;6311973;22;19956;-92
2020/12/28 11:04:55;;;;;;;;;;;;;;;;;;6310894;22;19899;-91
2020/12/28 11:07:20;;;;;;;;;;;;;;;;;;6309876;22;19903;-90
2020/12/28 11:09:46;;;;;;;;;;;;;;;;;;6310364;22;20320;-90
2020/12/28 11:12:12;;;;;;;;;;;;;;;;;;6318110;22;19899;-93
2020/12/28 11:14:38;;;;;;;;;;;;;;;;;;6315135;22;19903;-90
2020/12/28 11:17:04;;;;;;;;;;;;;;;;;;6312583;22;19902;-90
2020/12/28 11:19:30;;;;;;;;;;;;;;;;;;6313958;22;19899;-91
2020/12/28 11:21:56;;;;;;;;;;;;;;;;;;6312521;22;19934;-89
2020/12/28 11:24:22;;;;;;;;;;;;;;;;;;6311677;22;20347;-92
2020/12/28 11:26:48;;;;;;;;;;;;;;;;;;6313399;22;19910;-92
2020/12/28 11:29:14;;;;;;;;;;;;;;;;;;6317345;22;19942;-91
2020/12/28 11:31:40;;;;;;;;;;;;;;;;;;6316434;22;19973;-90
2020/12/28 11:34:06;;;;;;;;;;;;;;;;;;6319409;22;20001;-90
2020/12/28 11:36:32;;;;;;;;;;;;;;;;;;6320046;22;19938;-92
2020/12/28 11:38:58;;;;;;;;;;;;;;;;;;6314875;22;19899;-93
2020/12/28 11:41:24;;;;;;;;;;;;;;;;;;6313137;22;19907;-92
2020/12/28 11:43:50;;;;;;;;;;;;;;;;;;6320825;22;19905;-92
2020/12/28 11:46:16;;;;;;;;;;;;;;;;;;6319299;22;19952;-87
2020/12/28 11:48:42;;;;;;;;;;;;;;;;;;6311600;22;19899;-89
2020/12/28 11:51:08;;;;;;;;;;;;;;;;;;6316874;22;19898;-92
2020/12/28 11:53:34;;;;;;;;;;;;;;;;;;6315511;22;19941;-87
2020/12/28 11:56:12;;;;;;;;;;;;;;;;;;6311449;22;19905;-88
2020/12/28 11:58:39;;;;;;;;;;;;;;;;;;6310812;22;20236;-90
2020/12/28 12:01:05;;;;;;;;;;;;;;;;;;6310880;22;19922;-93
2020/12/28 12:03:32;;;;;;;;;;;;;;;;;;6314602;22;19899;-91
2020/12/28 12:05:58;;;;;;;;;;;;;;;;;;6314479;22;20334;-90
2020/12/28 12:08:24;;;;;;;;;;;;;;;;;;6312429;22;19934;-93
2020/12/28 12:10:50;;;;;;;;;;;;;;;;;;6312348;22;19902;-89
2020/12/28 12:13:16;;;;;;;;;;;;;;;;;;6318897;22;19909;-91
2020/12/28 12:15:42;;;;;;;;;;;;;;;;;;6313902;22;20202;-94
2020/12/28 12:18:08;;;;;;;;;;;;;;;;;;6317548;22;19944;-94
2020/12/28 12:20:34;;;;;;;;;;;;;;;;;;6320413;22;19945;-94
2020/12/28 12:22:59;;;;;;;;;;;;;;;;;;6329471;22;19883;-96
2020/12/28 12:25:25;;;;;;;;;;;;;;;;;;6332148;22;19911;-96
2020/12/28 12:27:51;;;;;;;;;;;;;;;;;;6329726;22;19909;-95
2020/12/28 12:30:17;;;;;;;;;;;;;;;;;;6325264;22;19944;-94
2020/12/28 12:32:43;;;;;;;;;;;;;;;;;;6328180;22;19899;-94
2020/12/28 12:35:09;;;;;;;;;;;;;;;;;;6327825;22;19919;-94
2020/12/28 12:37:35;;;;;;;;;;;;;;;;;;6329040;22;19905;-93
2020/12/28 12:40:01;;;;;;;;;;;;;;;;;;6322358;22;19982;-90
2020/12/28 12:42:27;;;;;;;;;;;;;;;;;;6316908;22;19917;-91
2020/12/28 12:44:53;;;;;;;;;;;;;;;;;;6307464;22;19910;-86
2020/12/28 12:47:19;;;;;;;;;;;;;;;;;;6305475;22;19899;-88
2020/12/28 12:49:45;;;;;;;;;;;;;;;;;;6306599;22;19909;-88
2020/12/28 12:52:11;;;;;;;;;;;;;;;;;;6307388;22;19899;-87
2020/12/28 12:54:37;;;;;;;;;;;;;;;;;;6307305;22;19899;-86
2020/12/28 12:57:03;;;;;;;;;;;;;;;;;;6308998;22;19905;-90
2020/12/28 12:59:29;;;;;;;;;;;;;;;;;;6307504;22;19928;-89
2020/12/28 13:01:55;;;;;;;;;;;;;;;;;;6308894;22;20292;-90
2020/12/28 13:04:33;;;;;;;;;;;;;;;;;;6308543;22;19943;-88
2020/12/28 13:06:59;;;;;;;;;;;;;;;;;;6307757;22;19911;-90
2020/12/28 13:09:25;;;;;;;;;;;;;;;;;;6309639;22;19906;-91
2020/12/28 13:11:51;;;;;;;;;;;;;;;;;;6309617;22;19903;-91
2020/12/28 13:14:17;;;;;;;;;;;;;;;;;;6310892;22;19903;-90
2020/12/28 13:16:42;;;;;;;;;;;;;;;;;;6311288;22;19978;-90
2020/12/28 13:19:08;;;;;;;;;;;;;;;;;;6310212;22;20204;-91
2020/12/28 13:21:35;;;;;;;;;;;;;;;;;;6310235;22;19906;-90
2020/12/28 13:24:01;;;;;;;;;;;;;;;;;;6309164;22;19981;-90
2020/12/28 13:26:27;;;;;;;;;;;;;;;;;;6308127;22;19926;-89
2020/12/28 13:28:53;;;;;;;;;;;;;;;;;;6306718;22;20339;-87
2020/12/28 13:31:19;;;;;;;;;;;;;;;;;;6306841;22;19940;-89
2020/12/28 13:33:45;;;;;;;;;;;;;;;;;;6306406;22;20043;-87
2020/12/28 13:36:11;;;;;;;;;;;;;;;;;;6308415;22;19899;-88
2020/12/28 13:38:37;;;;;;;;;;;;;;;;;;6310074;22;19899;-87
2020/12/28 13:41:03;;;;;;;;;;;;;;;;;;6308964;22;19902;-82
2020/12/28 13:43:29;;;;;;;;;;;;;;;;;;6309114;22;19970;-88
2020/12/28 13:45:55;;;;;;;;;;;;;;;;;;6307036;22;20398;-87
2020/12/28 13:48:22;;;;;;;;;;;;;;;;;;6306713;22;19903;-86
2020/12/28 13:50:48;;;;;;;;;;;;;;;;;;6307163;22;19899;-86
2020/12/28 13:53:13;;;;;;;;;;;;;;;;;;6310309;22;19906;-87
2020/12/28 13:55:41;;;;;;;;;;;;;;;;;;6309051;22;20240;-89
2020/12/28 13:58:07;;;;;;;;;;;;;;;;;;6307981;22;19899;-90
2020/12/28 14:00:33;;;;;;;;;;;;;;;;;;6306227;22;20024;-88
2020/12/28 14:02:59;;;;;;;;;;;;;;;;;;6309784;22;19946;-88
2020/12/28 14:05:29;;;;;;;;;;;;;;;;;;6313370;22;19945;-87
2020/12/28 14:07:55;;;;;;;;;;;;;;;;;;6311127;22;19899;-88
2020/12/28 14:10:21;;;;;;;;;;;;;;;;;;6308986;22;19947;-87
2020/12/28 14:12:47;;;;;;;;;;;;;;;;;;6312466;22;20032;-88
2020/12/28 14:15:13;;;;;;;;;;;;;;;;;;6310643;22;20283;-89
2020/12/28 14:17:38;;;;;;;;;;;;;;;;;;6324106;22;19899;-89
2020/12/28 14:20:04;;;;;;;;;;;;;;;;;;6330793;22;19918;-88
2020/12/28 14:22:30;;;;;;;;;;;;;;;;;;6310977;22;20312;-83
2020/12/28 14:24:56;;;;;;;;;;;;;;;;;;6329320;22;19930;-88
2020/12/28 14:27:22;;;;;;;;;;;;;;;;;;6333736;22;19891;-87
2020/12/28 14:29:48;;;;;;;;;;;;;;;;;;6335145;22;19899;-88
2020/12/28 14:32:14;;;;;;;;;;;;;;;;;;6335147;22;19922;-87
2020/12/28 14:34:40;;;;;;;;;;;;;;;;;;6334960;22;19890;-89
2020/12/28 14:37:06;;;;;;;;;;;;;;;;;;6334162;22;20263;-88
2020/12/28 14:39:32;;;;;;;;;;;;;;;;;;6334109;22;19957;-86
2020/12/28 14:41:57;;;;;;;;;;;;;;;;;;6328380;22;20081;-88
2020/12/28 14:44:23;;;;;;;;;;;;;;;;;;6320036;22;19946;-87
2020/12/28 14:46:49;;;;;;;;;;;;;;;;;;6320222;22;20437;-82
2020/12/28 14:49:15;;;;;;;;;;;;;;;;;;6306387;22;19951;-90
2020/12/28 14:51:41;;;;;;;;;;;;;;;;;;6311025;22;19909;-89
2020/12/28 14:54:07;;;;;;;;;;;;;;;;;;6310591;22;19939;-88
2020/12/28 14:56:33;;;;;;;;;;;;;;;;;;6311587;22;19981;-87
2020/12/28 14:58:59;;;;;;;;;;;;;;;;;;6311385;22;19905;-87
2020/12/28 15:01:25;;;;;;;;;;;;;;;;;;6311149;22;19921;-87
2020/12/28 15:03:51;;;;;;;;;;;;;;;;;;6306950;22;20580;-85
2020/12/28 15:06:17;;;;;;;;;;;;;;;;;;6304958;22;19913;-77
2020/12/28 15:08:43;;;;;;;;;;;;;;;;;;6304794;22;19938;-80
2020/12/28 15:11:09;;;;;;;;;;;;;;;;;;6302221;22;19899;-81
2020/12/28 15:13:37;;;;;;;;;;;;;;;;;;6304255;22;19898;-80
2020/12/28 15:16:03;;;;;;;;;;;;;;;;;;6305500;22;20387;-85
2020/12/28 15:18:30;;;;;;;;;;;;;;;;;;6306022;22;19969;-81
2020/12/28 15:20:56;;;;;;;;;;;;;;;;;;6306142;22;19917;-82
2020/12/28 15:23:22;;;;;;;;;;;;;;;;;;6304885;22;19902;-81
2020/12/28 15:25:47;;;;;;;;;;;;;;;;;;6306577;22;19907;-82
2020/12/28 15:28:13;;;;;;;;;;;;;;;;;;6306641;22;19906;-81
2020/12/28 15:30:39;;;;;;;;;;;;;;;;;;6307580;22;20346;-80
2020/12/28 15:33:05;;;;;;;;;;;;;;;;;;6306746;22;19903;-80
2020/12/28 15:35:31;;;;;;;;;;;;;;;;;;6307450;22;19903;-80
2020/12/28 15:37:57;;;;;;;;;;;;;;;;;;6307002;22;20277;-80
2020/12/28 15:40:23;;;;;;;;;;;;;;;;;;6306594;22;19899;-80
2020/12/28 15:42:49;;;;;;;;;;;;;;;;;;6306199;22;19911;-79
2020/12/28 15:45:15;;;;;;;;;;;;;;;;;;6306485;22;20279;-80
2020/12/28 15:47:40;;;;;;;;;;;;;;;;;;6306192;22;19914;-80
2020/12/28 15:50:06;;;;;;;;;;;;;;;;;;6306678;22;19903;-80
2020/12/28 15:52:32;;;;;;;;;;;;;;;;;;6306825;22;19906;-84
2020/12/28 15:54:58;;;;;;;;;;;;;;;;;;6307031;22;19903;-84
2020/12/28 15:57:24;;;;;;;;;;;;;;;;;;6311668;22;19956;-83
2020/12/28 15:59:50;;;;;;;;;;;;;;;;;;6308577;22;20233;-84
2020/12/28 16:02:16;;;;;;;;;;;;;;;;;;6307742;22;19898;-84
2020/12/28 16:04:42;;;;;;;;;;;;;;;;;;6307945;22;19899;-84
2020/12/28 16:07:08;;;;;;;;;;;;;;;;;;6306829;22;19911;-83
2020/12/28 16:09:34;;;;;;;;;;;;;;;;;;6306086;22;19989;-84
2020/12/28 16:12:00;;;;;;;;;;;;;;;;;;6305502;22;20569;-83
2020/12/28 16:14:26;;;;;;;;;;;;;;;;;;6306761;22;19944;-83
2020/12/28 16:16:52;;;;;;;;;;;;;;;;;;6306684;22;19952;-83
2020/12/28 16:19:18;;;;;;;;;;;;;;;;;;6306773;22;19929;-84
2020/12/28 16:21:44;;;;;;;;;;;;;;;;;;6301258;22;20247;-84
2020/12/28 16:24:20;;;;;;;;;;;;;;;;;;6307908;22;19910;-91
2020/12/28 16:26:46;;;;;;;;;;;;;;;;;;6307232;22;20188;-82
2020/12/28 16:29:12;;;;;;;;;;;;;;;;;;6306483;22;19937;-82
2020/12/28 16:31:38;;;;;;;;;;;;;;;;;;6305977;22;19969;-83
2020/12/28 16:34:04;;;;;;;;;;;;;;;;;;6304392;22;19925;-82
2020/12/28 16:36:34;;;;;;;;;;;;;;;;;;6305971;22;19899;-82